createdAt,value
2022-08-28T00:00:28.706Z,101987.00
2022-08-28T00:02:59.182Z,101982.78
2022-08-28T00:05:31.874Z,101985.05
2022-08-28T00:08:01.829Z,101982.12
2022-08-28T00:10:32.232Z,101982.12
2022-08-28T00:13:02.555Z,101982.54
2022-08-28T00:15:35.360Z,101988.56
2022-08-28T00:18:08.079Z,101992.98
2022-08-28T00:20:39.257Z,101999.79
2022-08-28T00:23:09.765Z,101994.25
2022-08-28T00:25:39.590Z,101995.97
2022-08-28T00:28:18.432Z,101990.70
2022-08-28T00:30:48.622Z,101998.75
2022-08-28T00:33:23.417Z,101996.86
2022-08-28T00:35:54.097Z,101994.08
2022-08-28T00:38:25.703Z,101994.09
2022-08-28T00:40:58.503Z,101984.48
2022-08-28T00:43:44.467Z,101988.34
2022-08-28T00:46:19.803Z,101986.48
2022-08-28T00:48:50.458Z,101985.07
2022-08-28T00:51:38.815Z,101986.75
2022-08-28T00:54:10.971Z,101970.14
2022-08-28T00:56:43.922Z,101970.14
2022-08-28T00:59:16.563Z,101988.80
2022-08-28T01:01:48.495Z,101986.02
2022-08-28T01:04:21.317Z,101994.83
2022-08-28T01:06:53.890Z,101997.58
2022-08-28T01:09:27.845Z,101997.58
2022-08-28T01:12:02.319Z,101998.88
2022-08-28T01:14:35.103Z,101996.31
2022-08-28T01:17:06.540Z,101997.73
2022-08-28T01:19:39.396Z,101996.55
2022-08-28T01:22:21.417Z,101998.80
2022-08-28T01:24:53.769Z,101997.73
2022-08-28T01:27:24.007Z,101998.05
2022-08-28T01:29:55.945Z,101997.64
2022-08-28T01:32:31.898Z,101998.27
2022-08-28T01:35:01.228Z,102001.55
2022-08-28T01:37:31.827Z,102006.75
2022-08-28T01:40:01.428Z,102012.47
2022-08-28T01:42:31.517Z,102010.56
2022-08-28T01:45:01.290Z,102006.09
2022-08-28T01:47:31.063Z,102010.34
2022-08-28T01:50:00.887Z,102015.54
2022-08-28T01:52:31.340Z,102007.71
2022-08-28T01:55:01.286Z,101988.13
2022-08-28T01:57:33.006Z,102010.59
2022-08-28T02:00:03.058Z,102020.41
2022-08-28T02:02:34.535Z,102020.41
2022-08-28T02:05:04.141Z,102011.97
2022-08-28T02:07:34.272Z,102018.62
2022-08-28T02:10:10.101Z,102019.02
2022-08-28T02:12:41.072Z,102021.05
2022-08-28T02:15:11.107Z,102003.70
2022-08-28T02:17:40.868Z,102003.70
2022-08-28T02:20:11.718Z,102002.97
2022-08-28T02:22:42.206Z,102002.97
2022-08-28T02:25:13.798Z,102026.24
2022-08-28T02:27:44.139Z,102028.97
2022-08-28T02:30:17.825Z,102025.70
2022-08-28T02:32:48.076Z,102026.06
2022-08-28T02:35:19.321Z,102026.75
2022-08-28T02:37:50.001Z,102035.31
2022-08-28T02:40:22.448Z,102027.44
2022-08-28T02:42:52.925Z,102031.91
2022-08-28T02:45:22.765Z,102029.08
2022-08-28T02:47:54.641Z,102035.11
2022-08-28T02:50:25.161Z,102026.97
2022-08-28T02:52:55.037Z,102032.05
2022-08-28T02:55:24.806Z,102028.63
2022-08-28T02:57:54.931Z,102029.45
2022-08-28T03:00:26.898Z,102030.50
2022-08-28T03:02:56.712Z,102027.61
2022-08-28T03:05:26.860Z,102026.45
2022-08-28T03:07:56.982Z,102026.03
2022-08-28T03:10:26.818Z,102031.61
2022-08-28T03:12:56.586Z,102030.44
2022-08-28T03:15:26.057Z,102030.78
2022-08-28T03:17:56.002Z,102038.61
2022-08-28T03:20:25.662Z,102040.37
2022-08-28T03:23:13.380Z,102037.39
2022-08-28T03:25:43.231Z,102042.70
2022-08-28T03:28:13.285Z,102037.50
2022-08-28T03:30:43.238Z,102037.50
2022-08-28T03:33:13.159Z,102036.33
2022-08-28T03:35:42.934Z,102035.28
2022-08-28T03:38:13.506Z,102042.36
2022-08-28T03:40:45.444Z,102038.88
2022-08-28T03:43:20.383Z,102040.53
2022-08-28T03:45:53.348Z,102038.09
2022-08-28T03:48:24.368Z,102048.42
2022-08-28T03:50:54.588Z,102047.75
2022-08-28T03:53:28.946Z,102043.23
2022-08-28T03:55:58.959Z,102050.84
2022-08-28T03:58:29.694Z,102046.90
2022-08-28T04:00:59.541Z,102048.73
2022-08-28T04:03:29.736Z,102050.49
2022-08-28T04:05:59.793Z,102065.55
2022-08-28T04:08:30.172Z,102061.64
2022-08-28T04:11:02.687Z,102056.72
2022-08-28T04:13:32.836Z,102066.61
2022-08-28T04:16:11.315Z,102060.90
2022-08-28T04:18:43.108Z,102049.39
2022-08-28T04:21:16.282Z,102049.39
2022-08-28T04:23:47.403Z,102072.25
2022-08-28T04:26:20.028Z,102072.25
2022-08-28T04:28:52.643Z,102068.93
2022-08-28T04:31:31.112Z,102071.16
2022-08-28T04:33:54.152Z,102068.84
2022-08-28T04:36:24.132Z,102068.61
2022-08-28T04:38:54.976Z,102069.63
2022-08-28T04:41:24.500Z,102071.68
2022-08-28T04:43:56.047Z,102066.66
2022-08-28T04:46:26.347Z,102070.73
2022-08-28T04:48:58.137Z,102075.75
2022-08-28T04:51:29.368Z,102075.75
2022-08-28T04:53:59.600Z,102083.83
2022-08-28T04:56:29.672Z,102081.45
2022-08-28T04:59:01.007Z,102086.63
2022-08-28T05:01:30.865Z,102090.80
2022-08-28T05:04:02.736Z,102091.86
2022-08-28T05:06:34.020Z,102095.28
2022-08-28T05:09:04.739Z,102092.64
2022-08-28T05:11:35.202Z,102092.27
2022-08-28T05:14:15.386Z,102095.70
2022-08-28T05:16:45.542Z,102097.98
2022-08-28T05:19:17.169Z,102079.34
2022-08-28T05:21:47.269Z,102098.70
2022-08-28T05:24:18.054Z,102100.40
2022-08-28T05:26:48.268Z,102097.02
2022-08-28T05:29:18.330Z,102105.59
2022-08-28T05:31:48.347Z,102111.56
2022-08-28T05:34:18.305Z,102109.97
2022-08-28T05:36:48.780Z,102109.44
2022-08-28T05:39:19.108Z,102109.97
2022-08-28T05:41:48.618Z,102112.14
2022-08-28T05:44:19.608Z,102114.73
2022-08-28T05:46:49.462Z,102109.97
2022-08-28T05:49:20.384Z,102115.84
2022-08-28T05:51:51.137Z,102114.04
2022-08-28T05:54:21.791Z,102115.73
2022-08-28T05:56:51.612Z,102117.72
2022-08-28T05:59:21.396Z,102108.27
2022-08-28T06:01:51.369Z,102120.05
2022-08-28T06:04:24.126Z,102118.86
2022-08-28T06:06:54.471Z,102124.32
2022-08-28T06:09:29.624Z,102125.48
2022-08-28T06:12:02.691Z,102125.48
2022-08-28T06:14:32.911Z,102123.43
2022-08-28T06:17:05.011Z,102127.97
2022-08-28T06:19:41.072Z,102124.25
2022-08-28T06:22:12.174Z,102130.10
2022-08-28T06:24:42.596Z,102130.10
2022-08-28T06:27:12.838Z,102136.14
2022-08-28T06:29:42.341Z,102134.11
2022-08-28T06:32:12.142Z,102139.09
2022-08-28T06:34:42.019Z,102142.67
2022-08-28T06:37:11.788Z,102142.66
2022-08-28T06:39:41.587Z,102141.28
2022-08-28T06:42:11.619Z,102139.19
2022-08-28T06:44:41.677Z,102136.30
2022-08-28T06:47:11.518Z,102139.27
2022-08-28T06:49:41.459Z,102136.79
2022-08-28T06:52:11.606Z,102135.06
2022-08-28T06:54:41.378Z,102139.21
2022-08-28T06:57:13.215Z,102141.95
2022-08-28T06:59:42.985Z,102137.76
2022-08-28T07:02:12.613Z,102137.29
2022-08-28T07:04:42.761Z,102140.06
2022-08-28T07:07:13.048Z,102143.20
2022-08-28T07:09:44.185Z,102144.30
2022-08-28T07:12:15.880Z,102145.23
2022-08-28T07:14:45.741Z,102148.31
2022-08-28T07:17:15.817Z,102149.41
2022-08-28T07:19:46.483Z,102147.63
2022-08-28T07:22:16.266Z,102150.50
2022-08-28T07:24:46.044Z,102153.50
2022-08-28T07:27:19.054Z,102142.65
2022-08-28T07:29:47.183Z,102142.98
2022-08-28T07:32:17.323Z,102146.73
2022-08-28T07:34:47.123Z,102147.44
2022-08-28T07:37:19.021Z,102148.71
2022-08-28T07:39:48.781Z,102145.75
2022-08-28T07:42:19.918Z,102151.72
2022-08-28T07:44:49.716Z,102129.18
2022-08-28T07:47:20.121Z,102129.18
2022-08-28T07:49:50.130Z,102151.00
2022-08-28T07:52:19.844Z,102148.52
2022-08-28T07:54:49.647Z,102148.41
2022-08-28T07:57:21.144Z,102132.10
2022-08-28T07:59:52.589Z,102132.10
2022-08-28T08:02:22.275Z,102155.25
2022-08-28T08:04:52.104Z,102155.25
2022-08-28T08:07:22.051Z,102152.80
2022-08-28T08:09:51.841Z,102159.33
2022-08-28T08:12:21.315Z,102152.66
2022-08-28T08:14:51.251Z,102159.31
2022-08-28T08:17:21.098Z,102166.00
2022-08-28T08:19:50.912Z,102160.69
2022-08-28T08:22:20.683Z,102165.31
2022-08-28T08:24:50.446Z,102172.02
2022-08-28T08:27:20.260Z,102168.67
2022-08-28T08:29:50.901Z,102167.21
2022-08-28T08:32:21.056Z,102175.43
2022-08-28T08:34:52.739Z,102177.92
2022-08-28T08:37:22.528Z,102171.56
2022-08-28T08:39:53.765Z,102170.42
2022-08-28T08:42:26.296Z,102179.86
2022-08-28T08:44:58.851Z,102167.42
2022-08-28T08:47:47.092Z,102168.34
2022-08-28T08:50:26.299Z,102162.67
2022-08-28T08:53:31.932Z,102165.28
2022-08-28T08:56:03.386Z,102157.45
2022-08-28T08:58:36.268Z,102157.45
2022-08-28T09:01:28.447Z,102161.92
2022-08-28T09:04:07.212Z,102165.42
2022-08-28T09:06:51.933Z,102158.64
2022-08-28T09:09:30.472Z,102159.25
2022-08-28T09:12:11.692Z,102140.92
2022-08-28T09:14:44.505Z,102140.92
2022-08-28T09:17:17.299Z,102156.48
2022-08-28T09:19:47.323Z,102149.84
2022-08-28T09:22:17.000Z,102148.34
2022-08-28T09:24:46.836Z,102150.81
2022-08-28T09:27:25.695Z,102138.95
2022-08-28T09:29:59.068Z,102148.95
2022-08-28T09:32:44.633Z,102145.16
2022-08-28T09:35:18.870Z,102156.73
2022-08-28T09:37:48.927Z,102141.41
2022-08-28T09:40:27.313Z,102141.41
2022-08-28T09:43:29.958Z,102152.23
2022-08-28T09:46:05.727Z,102150.94
2022-08-28T09:48:41.111Z,102156.48
2022-08-28T09:51:24.720Z,102156.48
2022-08-28T09:53:57.244Z,102155.17
2022-08-28T09:56:33.341Z,102155.50
2022-08-28T09:59:03.575Z,102148.44
2022-08-28T10:01:44.757Z,102148.58
2022-08-28T10:04:27.731Z,102152.48
2022-08-28T10:07:06.495Z,102149.35
2022-08-28T10:09:51.332Z,102152.16
2022-08-28T10:12:40.575Z,102148.75
2022-08-28T10:15:31.463Z,102150.00
2022-08-28T10:18:17.361Z,102148.67
2022-08-28T10:20:58.625Z,102149.54
2022-08-28T10:23:31.396Z,102137.80
2022-08-28T10:26:22.448Z,102142.83
2022-08-28T10:28:56.523Z,102127.48
2022-08-28T10:31:32.662Z,102127.48
2022-08-28T10:34:08.338Z,102149.26
2022-08-28T10:36:38.167Z,102153.48
2022-08-28T10:39:22.624Z,102142.02
2022-08-28T10:41:57.856Z,102142.02
2022-08-28T10:44:39.666Z,102149.32
2022-08-28T10:47:11.587Z,102142.52
2022-08-28T10:49:46.898Z,102125.64
2022-08-28T10:52:22.882Z,102125.64
2022-08-28T10:54:56.902Z,102153.59
2022-08-28T10:57:36.097Z,102144.82
2022-08-28T11:00:08.232Z,102144.81
2022-08-28T11:02:39.428Z,102146.67
2022-08-28T11:05:11.143Z,102150.78
2022-08-28T11:07:45.010Z,102152.61
2022-08-28T11:10:17.823Z,102147.86
2022-08-28T11:12:49.397Z,102143.97
2022-08-28T11:15:37.488Z,102137.34
2022-08-28T11:18:18.672Z,102137.34
2022-08-28T11:21:09.452Z,102151.06
2022-08-28T11:23:45.150Z,102158.13
2022-08-28T11:26:18.255Z,102152.59
2022-08-28T11:28:48.425Z,102158.20
2022-08-28T11:31:29.128Z,102158.89
2022-08-28T11:33:55.356Z,102154.58
2022-08-28T11:36:29.798Z,102151.22
2022-08-28T11:39:08.387Z,102148.20
2022-08-28T11:41:41.386Z,102147.64
2022-08-28T11:44:14.324Z,102149.14
2022-08-28T11:46:51.729Z,102128.29
2022-08-28T11:49:36.341Z,102128.29
2022-08-28T11:52:27.404Z,102146.80
2022-08-28T11:55:11.983Z,102151.52
2022-08-28T11:57:50.487Z,102140.61
2022-08-28T12:00:48.681Z,102129.37
2022-08-28T12:03:27.572Z,102137.44
2022-08-28T12:06:00.057Z,102136.55
2022-08-28T12:08:54.912Z,102139.50
2022-08-28T12:11:45.580Z,102140.36
2022-08-28T12:14:29.978Z,102139.80
2022-08-28T12:17:17.391Z,102134.15
2022-08-28T12:19:56.367Z,102138.94
2022-08-28T12:22:29.352Z,102133.04
2022-08-28T12:25:02.309Z,102121.87
2022-08-28T12:27:33.080Z,102127.05
2022-08-28T12:30:03.799Z,102134.66
2022-08-28T12:32:36.605Z,102135.61
2022-08-28T12:35:23.042Z,102129.66
2022-08-28T12:37:58.873Z,102111.80
2022-08-28T12:40:29.490Z,102111.80
2022-08-28T12:43:15.483Z,102128.87
2022-08-28T12:45:56.411Z,102131.68
2022-08-28T12:48:31.010Z,102129.11
2022-08-28T12:51:09.111Z,102133.00
2022-08-28T12:53:42.137Z,102131.03
2022-08-28T12:56:13.645Z,102121.02
2022-08-28T12:58:44.442Z,102126.57
2022-08-28T13:01:17.648Z,102129.11
2022-08-28T13:03:53.369Z,102122.17
2022-08-28T13:06:38.077Z,102120.48
2022-08-28T13:09:13.592Z,102093.63
2022-08-28T13:11:49.080Z,102093.63
2022-08-28T13:14:43.018Z,102118.23
2022-08-28T13:17:14.776Z,102112.14
2022-08-28T13:19:44.709Z,102106.06
2022-08-28T13:22:35.508Z,102105.41
2022-08-28T13:25:06.960Z,102104.05
2022-08-28T13:27:38.452Z,102110.12
2022-08-28T13:30:20.997Z,102108.53
2022-08-28T13:33:03.073Z,102109.38
2022-08-28T13:35:39.946Z,102105.94
2022-08-28T13:38:13.985Z,102092.50
2022-08-28T13:40:59.650Z,102092.50
2022-08-28T13:43:32.860Z,102112.36
2022-08-28T13:46:02.978Z,102112.89
2022-08-28T13:48:32.763Z,102107.86
2022-08-28T13:51:10.823Z,102108.14
2022-08-28T13:53:41.213Z,102110.71
2022-08-28T13:56:11.742Z,102102.05
2022-08-28T13:58:41.516Z,102096.95
2022-08-28T14:01:12.743Z,102091.33
2022-08-28T14:03:42.837Z,102088.12
2022-08-28T14:06:18.900Z,102075.08
2022-08-28T14:08:49.237Z,102086.16
2022-08-28T14:11:18.996Z,102091.27
2022-08-28T14:13:55.713Z,102099.44
2022-08-28T14:16:20.317Z,102094.44
2022-08-28T14:18:51.765Z,102085.78
2022-08-28T14:21:24.233Z,102092.52
2022-08-28T14:23:54.177Z,102096.08
2022-08-28T14:26:24.060Z,102094.45
2022-08-28T14:28:53.900Z,102090.83
2022-08-28T14:31:24.722Z,102094.48
2022-08-28T14:33:55.671Z,102088.58
2022-08-28T14:36:28.228Z,102084.94
2022-08-28T14:39:04.097Z,102084.94
2022-08-28T14:41:31.878Z,102085.17
2022-08-28T14:44:02.367Z,102079.84
2022-08-28T14:46:35.517Z,102079.55
2022-08-28T14:49:08.993Z,102083.06
2022-08-28T14:51:41.480Z,102077.03
2022-08-28T14:54:14.020Z,102077.87
2022-08-28T14:56:45.532Z,102084.31
2022-08-28T14:59:23.805Z,102084.10
2022-08-28T15:01:51.112Z,102085.25
2022-08-28T15:04:23.550Z,102080.07
2022-08-28T15:06:59.174Z,102083.25
2022-08-28T15:09:29.135Z,102087.46
2022-08-28T15:11:58.898Z,102080.66
2022-08-28T15:14:28.768Z,102084.23
2022-08-28T15:16:58.415Z,102090.35
2022-08-28T15:19:29.923Z,102081.72
2022-08-28T15:21:59.693Z,102094.19
2022-08-28T15:24:33.026Z,102091.22
2022-08-28T15:27:03.311Z,102067.20
2022-08-28T15:29:33.102Z,102079.59
2022-08-28T15:32:03.874Z,102079.65
2022-08-28T15:34:33.633Z,102082.13
2022-08-28T15:37:03.799Z,102078.50
2022-08-28T15:39:53.368Z,102074.48
2022-08-28T15:42:23.374Z,102071.49
2022-08-28T15:44:53.209Z,102068.75
2022-08-28T15:47:22.976Z,102066.23
2022-08-28T15:49:57.217Z,102068.18
2022-08-28T15:52:27.669Z,102060.09
2022-08-28T15:54:57.444Z,102055.83
2022-08-28T15:57:27.209Z,102053.86
2022-08-28T15:59:57.040Z,102057.01
2022-08-28T16:02:27.946Z,102063.28
2022-08-28T16:04:58.131Z,102062.25
2022-08-28T16:07:27.889Z,102064.84
2022-08-28T16:09:57.658Z,102047.84
2022-08-28T16:12:27.133Z,102047.84
2022-08-28T16:14:57.562Z,102062.88
2022-08-28T16:17:27.802Z,102063.87
2022-08-28T16:19:58.437Z,102068.59
2022-08-28T16:22:27.985Z,102069.38
2022-08-28T16:24:58.045Z,102063.48
2022-08-28T16:27:27.916Z,102064.13
2022-08-28T16:29:57.753Z,102063.78
2022-08-28T16:32:27.709Z,102061.99
2022-08-28T16:34:57.483Z,102071.14
2022-08-28T16:37:38.319Z,102071.52
2022-08-28T16:39:58.476Z,102074.59
2022-08-28T16:42:32.298Z,102080.20
2022-08-28T16:44:59.875Z,102079.07
2022-08-28T16:47:32.952Z,102078.48
2022-08-28T16:50:05.648Z,102075.34
2022-08-28T16:52:35.967Z,102070.87
2022-08-28T16:55:08.841Z,102075.62
2022-08-28T16:57:39.350Z,102067.02
2022-08-28T17:00:13.730Z,102066.19
2022-08-28T17:02:44.705Z,102070.30
2022-08-28T17:05:15.780Z,102061.73
2022-08-28T17:07:45.529Z,102067.59
2022-08-28T17:10:17.619Z,102072.36
2022-08-28T17:12:47.669Z,102069.80
2022-08-28T17:15:17.970Z,102077.84
2022-08-28T17:17:47.731Z,102071.50
2022-08-28T17:20:35.001Z,102069.53
2022-08-28T17:23:05.788Z,102061.69
2022-08-28T17:25:35.575Z,102065.98
2022-08-28T17:28:06.472Z,102072.27
2022-08-28T17:30:36.243Z,102055.01
2022-08-28T17:33:07.039Z,102055.01
2022-08-28T17:35:41.923Z,102074.28
2022-08-28T17:38:09.501Z,102079.59
2022-08-28T17:40:39.380Z,102077.44
2022-08-28T17:43:09.536Z,102059.38
2022-08-28T17:45:39.372Z,102059.38
2022-08-28T17:48:09.894Z,102080.02
2022-08-28T17:50:40.027Z,102088.45
2022-08-28T17:53:09.935Z,102082.79
2022-08-28T17:55:39.707Z,102084.91
2022-08-28T17:58:11.768Z,102089.41
2022-08-28T18:00:42.382Z,102092.39
2022-08-28T18:03:12.479Z,102087.94
2022-08-28T18:05:42.418Z,102094.41
2022-08-28T18:08:12.004Z,102099.00
2022-08-28T18:10:42.123Z,102097.95
2022-08-28T18:13:11.597Z,102094.06
2022-08-28T18:15:41.432Z,102082.78
2022-08-28T18:18:13.742Z,102082.78
2022-08-28T18:20:43.711Z,102106.05
2022-08-28T18:23:13.779Z,102104.27
2022-08-28T18:25:50.845Z,102104.58
2022-08-28T18:28:22.336Z,102100.91
2022-08-28T18:30:52.827Z,102101.52
2022-08-28T18:33:24.935Z,102090.66
2022-08-28T18:35:54.849Z,102090.66
2022-08-28T18:38:28.316Z,102107.61
2022-08-28T18:40:59.591Z,102107.61
2022-08-28T18:43:29.685Z,102123.92
2022-08-28T18:46:02.013Z,102119.20
2022-08-28T18:48:33.171Z,102128.84
2022-08-28T18:51:04.908Z,102125.65
2022-08-28T18:53:35.311Z,102130.02
2022-08-28T18:56:06.604Z,102122.38
2022-08-28T18:58:36.712Z,102132.53
2022-08-28T19:01:08.117Z,102138.08
2022-08-28T19:03:38.014Z,102139.37
2022-08-28T19:06:10.957Z,102142.16
2022-08-28T19:08:41.162Z,102133.03
2022-08-28T19:11:12.676Z,102133.03
2022-08-28T19:13:43.631Z,102153.52
2022-08-28T19:16:21.036Z,102155.20
2022-08-28T19:18:53.074Z,102156.34
2022-08-28T19:21:22.931Z,102165.02
2022-08-28T19:23:56.042Z,102162.53
2022-08-28T19:26:26.544Z,102161.48
2022-08-28T19:28:57.041Z,102167.67
2022-08-28T19:31:27.807Z,102167.20
2022-08-28T19:33:58.581Z,102165.39
2022-08-28T19:36:29.733Z,102154.77
2022-08-28T19:39:00.729Z,102154.77
2022-08-28T19:41:31.637Z,102169.63
2022-08-28T19:44:01.679Z,102174.23
2022-08-28T19:46:33.126Z,102174.34
2022-08-28T19:49:07.336Z,102184.63
2022-08-28T19:51:38.741Z,102183.47
2022-08-28T19:54:12.600Z,102185.48
2022-08-28T19:56:42.655Z,102174.73
2022-08-28T19:59:12.788Z,102174.73
2022-08-28T20:01:44.818Z,102187.20
2022-08-28T20:04:16.817Z,102198.97
2022-08-28T20:06:47.029Z,102200.44
2022-08-28T20:09:18.703Z,102201.85
2022-08-28T20:11:49.030Z,102211.80
2022-08-28T20:14:20.509Z,102185.12
2022-08-28T20:16:52.091Z,102185.12
2022-08-28T20:19:23.379Z,102205.63
2022-08-28T20:21:53.504Z,102204.79
2022-08-28T20:24:24.622Z,102207.18
2022-08-28T20:26:54.554Z,102220.36
2022-08-28T20:29:24.536Z,102216.06
2022-08-28T20:31:54.327Z,102220.91
2022-08-28T20:34:24.427Z,102214.28
2022-08-28T20:36:54.432Z,102217.58
2022-08-28T20:39:24.251Z,102212.67
2022-08-28T20:41:54.028Z,102212.97
2022-08-28T20:44:24.686Z,102217.44
2022-08-28T20:46:54.743Z,102223.48
2022-08-28T20:49:24.627Z,102228.38
2022-08-28T20:51:56.172Z,102226.63
2022-08-28T20:54:31.891Z,102240.75
2022-08-28T20:57:04.378Z,102236.10
2022-08-28T20:59:39.975Z,102242.88
2022-08-28T21:02:14.915Z,102235.19
2022-08-28T21:04:46.650Z,102242.64
2022-08-28T21:07:18.354Z,102244.87
2022-08-28T21:10:05.761Z,102250.97
2022-08-28T21:12:20.306Z,102254.91
2022-08-28T21:14:52.215Z,102262.21
2022-08-28T21:17:29.506Z,102255.96
2022-08-28T21:19:54.580Z,102256.88
2022-08-28T21:22:25.552Z,102256.03
2022-08-28T21:24:55.599Z,102250.73
2022-08-28T21:27:25.266Z,102257.25
2022-08-28T21:29:59.813Z,102253.23
2022-08-28T21:32:30.711Z,102266.66
2022-08-28T21:35:02.150Z,102266.78
2022-08-28T21:37:31.911Z,102262.02
2022-08-28T21:40:02.075Z,102261.25
2022-08-28T21:42:31.862Z,102265.28
2022-08-28T21:45:02.059Z,102259.56
2022-08-28T21:47:31.900Z,102268.30
2022-08-28T21:50:01.753Z,102268.45
2022-08-28T21:52:32.966Z,102271.09
2022-08-28T21:55:09.009Z,102266.88
2022-08-28T21:57:38.839Z,102269.41
2022-08-28T22:00:15.858Z,102274.26
2022-08-28T22:02:46.203Z,102275.41
2022-08-28T22:05:16.828Z,102274.34
2022-08-28T22:07:46.600Z,102278.17
2022-08-28T22:10:16.332Z,102274.39
2022-08-28T22:12:46.116Z,102274.70
2022-08-28T22:15:15.906Z,102272.70
2022-08-28T22:17:45.844Z,102270.31
2022-08-28T22:20:16.261Z,102271.81
2022-08-28T22:23:03.720Z,102272.64
2022-08-28T22:25:33.252Z,102273.13
2022-08-28T22:28:06.484Z,102276.91
2022-08-28T22:30:36.928Z,102276.26
2022-08-28T22:33:06.723Z,102275.11
2022-08-28T22:35:36.489Z,102278.73
2022-08-28T22:38:08.109Z,102277.66
2022-08-28T22:40:37.982Z,102273.09
2022-08-28T22:43:07.810Z,102275.11
2022-08-28T22:45:37.617Z,102271.05
2022-08-28T22:48:10.288Z,102277.48
2022-08-28T22:50:40.091Z,102276.54
2022-08-28T22:53:10.193Z,102280.53
2022-08-28T22:55:43.463Z,102284.33
2022-08-28T22:58:13.004Z,102287.31
2022-08-28T23:00:43.591Z,102283.50
2022-08-28T23:03:13.773Z,102281.45
2022-08-28T23:05:43.561Z,102280.92
2022-08-28T23:08:13.610Z,102274.37
2022-08-28T23:10:58.354Z,102272.23
2022-08-28T23:13:15.159Z,102273.84
2022-08-28T23:15:45.100Z,102273.84
2022-08-28T23:18:16.155Z,102278.42
2022-08-28T23:20:46.785Z,102264.33
2022-08-28T23:23:18.282Z,102264.33
2022-08-28T23:25:49.580Z,102267.31
2022-08-28T23:28:19.899Z,102267.31
2022-08-28T23:30:50.063Z,102263.61
2022-08-28T23:33:23.961Z,102263.08
2022-08-28T23:35:52.091Z,102261.17
2022-08-28T23:38:21.941Z,102253.52
2022-08-28T23:40:51.765Z,102256.31
2022-08-28T23:43:21.726Z,102247.92
2022-08-28T23:45:52.154Z,102254.63
2022-08-28T23:48:21.919Z,102257.37
2022-08-28T23:50:51.961Z,102257.47
2022-08-28T23:53:21.896Z,102245.28
2022-08-28T23:55:51.660Z,102250.08
2022-08-28T23:58:22.533Z,102245.17
